Airfield :
LOGIN :

Register | Disclaimer

   EN    FR    IT 

 










Legend :    VFR   Marginal VFR   IFR   Intensive IFR   Very Intensive IFR
Visi :
Ceiling :
>= 8 km
>= 3000ft
5 to 8 km
1000 to 3000 ft
1500m to 5 km
500 to 1000 ft
800 to 1500m
200 to 500 ft
< 800m
< 200 ft
Symbols :   Thunderstorms  Fog  Heavy snow  Heavy precipitations  Wind > 20 kt
SIGMETs :     Misc.  Thunderstorms  Icing  Turbulence  Mountain Waves  Volcanic Ashes






- Airport Elevation : 526 ft
- IATA code : LTN


EGGW - London Luton

CURRENT METAR :
  • 270720Z AUTO 04004KT 340V080 3100 -SN OVC001/// //////TCU 00/00 Q0995

EXPIRED METARs :
  • 270650Z AUTO 08004KT 2200 -SN OVC002 00/M00 Q0995
  • 270620Z AUTO 08004KT 6000 -RASN OVC002/// //////TCU 00/00 Q0996
  • 270550Z 11004KT 6000 -SN BKN005 OVC021 01/00 Q0996
  • 270520Z AUTO 13004KT 6000 -RASN OVC021 01/00 Q0997
  • 270450Z AUTO 13003KT 7000 -RASN BKN020/// OVC030/// //////TCU 01/00 Q0997

TAF AMD TAF EGGW
Valid from the 27 at 06:00 until the 28 at 06:00 UTC


270617Z 2706/2806 09006KT 6000 -RASN BKN008
BECMG 2706/2709 2000 RASN BR FEW001 BKN003
TEMPO 2706/2712 0800 SN BKN001
BECMG 2709/2712 30014KT
BECMG 2712/2714 9999 NSW FEW030
TEMPO 2714/2718 31018G28KT
BECMG 2721/2724 24004KT
ATIS : +44 1582 395 204



MET'MAP, your aeronautical weather chart ! - Copyright ORBIFLY December 2007 - Disclaimer

ORBIFLY MET'MAP TEAM :

Programming & Development : Alexandra Zaïnal
Concept & original design : Baudouin d'Aumeries
Assistance for programming : Marc-Olivier Méhu
Technical & hardware support : Manuel Goepfert

Contact : metmap@orbifly.com




SOURCES & CREDITS :

   NOAA